sensor_id;sensor_type;location;lat;lon;timestamp;pressure;altitude;pressure_sealevel;temperature
72054;BMP280;59918;51.280;7.950;2023-04-15T00:00:31;97185.69;;;4.26
72054;BMP280;59918;51.280;7.950;2023-04-15T00:02:56;97185.09;;;4.24
72054;BMP280;59918;51.280;7.950;2023-04-15T00:05:21;97184.31;;;4.24
72054;BMP280;59918;51.280;7.950;2023-04-15T00:07:46;97189.75;;;4.21
72054;BMP280;59918;51.280;7.950;2023-04-15T00:10:12;97182.50;;;4.18
72054;BMP280;59918;51.280;7.950;2023-04-15T00:12:37;97182.81;;;4.15
72054;BMP280;59918;51.280;7.950;2023-04-15T00:15:02;97171.44;;;4.11
72054;BMP280;59918;51.280;7.950;2023-04-15T00:17:27;97179.06;;;4.11
72054;BMP280;59918;51.280;7.950;2023-04-15T00:19:53;97171.44;;;4.11
72054;BMP280;59918;51.280;7.950;2023-04-15T00:22:18;97171.69;;;4.16
72054;BMP280;59918;51.280;7.950;2023-04-15T00:24:43;97177.03;;;4.21
72054;BMP280;59918;51.280;7.950;2023-04-15T00:27:08;97177.63;;;4.23
72054;BMP280;59918;51.280;7.950;2023-04-15T00:29:33;97176.06;;;4.22
72054;BMP280;59918;51.280;7.950;2023-04-15T00:31:58;97178.97;;;4.19
72054;BMP280;59918;51.280;7.950;2023-04-15T00:34:23;97171.88;;;4.14
72054;BMP280;59918;51.280;7.950;2023-04-15T00:36:52;97172.75;;;4.07
72054;BMP280;59918;51.280;7.950;2023-04-15T00:39:17;97171.19;;;4.06
72054;BMP280;59918;51.280;7.950;2023-04-15T00:41:42;97167.88;;;4.05
72054;BMP280;59918;51.280;7.950;2023-04-15T00:44:08;97167.44;;;4.02
72054;BMP280;59918;51.280;7.950;2023-04-15T00:46:36;97168.75;;;3.98
72054;BMP280;59918;51.280;7.950;2023-04-15T00:49:02;97169.09;;;3.95
72054;BMP280;59918;51.280;7.950;2023-04-15T00:51:28;97178.03;;;3.91
72054;BMP280;59918;51.280;7.950;2023-04-15T00:53:53;97174.88;;;3.89
72054;BMP280;59918;51.280;7.950;2023-04-15T00:56:19;97178.13;;;3.83
72054;BMP280;59918;51.280;7.950;2023-04-15T00:58:45;97179.47;;;3.79
72054;BMP280;59918;51.280;7.950;2023-04-15T01:01:10;97177.47;;;3.75
72054;BMP280;59918;51.280;7.950;2023-04-15T01:03:35;97176.06;;;3.72
72054;BMP280;59918;51.280;7.950;2023-04-15T01:06:00;97167.38;;;3.67
72054;BMP280;59918;51.280;7.950;2023-04-15T01:08:26;97174.72;;;3.62
72054;BMP280;59918;51.280;7.950;2023-04-15T01:10:53;97178.59;;;3.58
72054;BMP280;59918;51.280;7.950;2023-04-15T01:13:18;97177.97;;;3.56
72054;BMP280;59918;51.280;7.950;2023-04-15T01:15:43;97178.16;;;3.55
72054;BMP280;59918;51.280;7.950;2023-04-15T01:18:09;97173.25;;;3.53
72054;BMP280;59918;51.280;7.950;2023-04-15T01:20:34;97177.88;;;3.50
72054;BMP280;59918;51.280;7.950;2023-04-15T01:22:59;97175.88;;;3.45
72054;BMP280;59918;51.280;7.950;2023-04-15T01:25:30;97173.06;;;3.40
72054;BMP280;59918;51.280;7.950;2023-04-15T01:27:55;97174.19;;;3.38
72054;BMP280;59918;51.280;7.950;2023-04-15T01:30:20;97173.59;;;3.36
72054;BMP280;59918;51.280;7.950;2023-04-15T01:32:45;97175.34;;;3.35
72054;BMP280;59918;51.280;7.950;2023-04-15T01:35:10;97170.44;;;3.34
72054;BMP280;59918;51.280;7.950;2023-04-15T01:37:35;97168.06;;;3.32
72054;BMP280;59918;51.280;7.950;2023-04-15T01:40:01;97168.25;;;3.31
72054;BMP280;59918;51.280;7.950;2023-04-15T01:42:26;97166.66;;;3.30
72054;BMP280;59918;51.280;7.950;2023-04-15T01:44:51;97172.28;;;3.26
72054;BMP280;59918;51.280;7.950;2023-04-15T01:47:16;97167.34;;;3.24
72054;BMP280;59918;51.280;7.950;2023-04-15T01:49:41;97179.44;;;3.22
72054;BMP280;59918;51.280;7.950;2023-04-15T01:52:07;97167.72;;;3.21
72054;BMP280;59918;51.280;7.950;2023-04-15T01:54:32;97171.22;;;3.20
72054;BMP280;59918;51.280;7.950;2023-04-15T01:56:57;97169.03;;;3.17
72054;BMP280;59918;51.280;7.950;2023-04-15T01:59:22;97171.13;;;3.14
72054;BMP280;59918;51.280;7.950;2023-04-15T02:01:48;97177.31;;;3.11
72054;BMP280;59918;51.280;7.950;2023-04-15T02:04:13;97172.59;;;3.08
72054;BMP280;59918;51.280;7.950;2023-04-15T02:06:38;97171.81;;;3.08
72054;BMP280;59918;51.280;7.950;2023-04-15T02:09:03;97171.34;;;3.04
72054;BMP280;59918;51.280;7.950;2023-04-15T02:11:28;97184.38;;;3.01
72054;BMP280;59918;51.280;7.950;2023-04-15T02:13:53;97181.41;;;2.98
72054;BMP280;59918;51.280;7.950;2023-04-15T02:16:18;97180.97;;;2.94
72054;BMP280;59918;51.280;7.950;2023-04-15T02:18:44;97184.81;;;2.90
72054;BMP280;59918;51.280;7.950;2023-04-15T02:21:09;97184.34;;;2.87
72054;BMP280;59918;51.280;7.950;2023-04-15T02:23:34;97187.06;;;2.86
72054;BMP280;59918;51.280;7.950;2023-04-15T02:25:59;97190.56;;;2.85
72054;BMP280;59918;51.280;7.950;2023-04-15T02:28:25;97180.75;;;2.82
72054;BMP280;59918;51.280;7.950;2023-04-15T02:30:50;97191.88;;;2.81
72054;BMP280;59918;51.280;7.950;2023-04-15T02:33:15;97187.94;;;2.78
72054;BMP280;59918;51.280;7.950;2023-04-15T02:35:40;97181.88;;;2.79
72054;BMP280;59918;51.280;7.950;2023-04-15T02:38:05;97190.47;;;2.78
72054;BMP280;59918;51.280;7.950;2023-04-15T02:40:30;97189.66;;;2.78
72054;BMP280;59918;51.280;7.950;2023-04-15T02:42:55;97193.19;;;2.77
72054;BMP280;59918;51.280;7.950;2023-04-15T02:45:21;97196.66;;;2.76
72054;BMP280;59918;51.280;7.950;2023-04-15T02:47:46;97190.19;;;2.73
72054;BMP280;59918;51.280;7.950;2023-04-15T02:50:11;97198.75;;;2.72
72054;BMP280;59918;51.280;7.950;2023-04-15T02:52:40;97198.56;;;2.74
72054;BMP280;59918;51.280;7.950;2023-04-15T02:55:05;97197.78;;;2.73
72054;BMP280;59918;51.280;7.950;2023-04-15T02:57:30;97201.31;;;2.72
72054;BMP280;59918;51.280;7.950;2023-04-15T02:59:56;97204.94;;;2.70
72054;BMP280;59918;51.280;7.950;2023-04-15T03:02:21;97210.22;;;2.68
72054;BMP280;59918;51.280;7.950;2023-04-15T03:04:46;97206.44;;;2.64
72054;BMP280;59918;51.280;7.950;2023-04-15T03:07:13;97203.59;;;2.59
72054;BMP280;59918;51.280;7.950;2023-04-15T03:09:38;97206.50;;;2.56
72054;BMP280;59918;51.280;7.950;2023-04-15T03:12:04;97205.88;;;2.54
72054;BMP280;59918;51.280;7.950;2023-04-15T03:14:29;97206.03;;;2.53
72054;BMP280;59918;51.280;7.950;2023-04-15T03:16:54;97208.56;;;2.53
72054;BMP280;59918;51.280;7.950;2023-04-15T03:19:19;97214.59;;;2.52
72054;BMP280;59918;51.280;7.950;2023-04-15T03:21:44;97210.97;;;2.47
72054;BMP280;59918;51.280;7.950;2023-04-15T03:24:09;97212.25;;;2.43
72054;BMP280;59918;51.280;7.950;2023-04-15T03:26:34;97210.84;;;2.40
72054;BMP280;59918;51.280;7.950;2023-04-15T03:28:59;97203.41;;;2.39
72054;BMP280;59918;51.280;7.950;2023-04-15T03:31:25;97207.69;;;2.38
72054;BMP280;59918;51.280;7.950;2023-04-15T03:33:50;97210.22;;;2.38
72054;BMP280;59918;51.280;7.950;2023-04-15T03:36:15;97208.66;;;2.37
72054;BMP280;59918;51.280;7.950;2023-04-15T03:38:40;97217.84;;;2.38
72054;BMP280;59918;51.280;7.950;2023-04-15T03:41:05;97215.47;;;2.37
72054;BMP280;59918;51.280;7.950;2023-04-15T03:43:30;97215.31;;;2.38
72054;BMP280;59918;51.280;7.950;2023-04-15T03:45:56;97216.56;;;2.42
72054;BMP280;59918;51.280;7.950;2023-04-15T03:48:21;97214.63;;;2.44
72054;BMP280;59918;51.280;7.950;2023-04-15T03:50:46;97219.22;;;2.49
72054;BMP280;59918;51.280;7.950;2023-04-15T03:53:11;97217.47;;;2.49
72054;BMP280;59918;51.280;7.950;2023-04-15T03:55:36;97217.47;;;2.49
72054;BMP280;59918;51.280;7.950;2023-04-15T03:58:01;97213.97;;;2.50
72054;BMP280;59918;51.280;7.950;2023-04-15T04:00:26;97223.97;;;2.52
72054;BMP280;59918;51.280;7.950;2023-04-15T04:02:52;97217.94;;;2.53
72054;BMP280;59918;51.280;7.950;2023-04-15T04:05:17;97222.66;;;2.55
72054;BMP280;59918;51.280;7.950;2023-04-15T04:07:42;97221.72;;;2.56
72054;BMP280;59918;51.280;7.950;2023-04-15T04:10:07;97225.66;;;2.59
72054;BMP280;59918;51.280;7.950;2023-04-15T04:12:32;97213.59;;;2.61
72054;BMP280;59918;51.280;7.950;2023-04-15T04:14:57;97220.84;;;2.64
72054;BMP280;59918;51.280;7.950;2023-04-15T04:17:23;97217.22;;;2.66
72054;BMP280;59918;51.280;7.950;2023-04-15T04:19:48;97217.03;;;2.68
72054;BMP280;59918;51.280;7.950;2023-04-15T04:22:13;97219.25;;;2.71
72054;BMP280;59918;51.280;7.950;2023-04-15T04:24:38;97225.72;;;2.73
72054;BMP280;59918;51.280;7.950;2023-04-15T04:27:03;97223.97;;;2.74
72054;BMP280;59918;51.280;7.950;2023-04-15T04:29:28;97219.69;;;2.74
72054;BMP280;59918;51.280;7.950;2023-04-15T04:31:53;97215.41;;;2.75
72054;BMP280;59918;51.280;7.950;2023-04-15T04:34:18;97221.09;;;2.77
72054;BMP280;59918;51.280;7.950;2023-04-15T04:36:44;97213.31;;;2.78
72054;BMP280;59918;51.280;7.950;2023-04-15T04:39:09;97216.63;;;2.79
72054;BMP280;59918;51.280;7.950;2023-04-15T04:41:34;97221.38;;;2.82
72054;BMP280;59918;51.280;7.950;2023-04-15T04:43:59;97217.53;;;2.86
72054;BMP280;59918;51.280;7.950;2023-04-15T04:46:24;97221.31;;;2.89
72054;BMP280;59918;51.280;7.950;2023-04-15T04:48:49;97223.34;;;2.94
72054;BMP280;59918;51.280;7.950;2023-04-15T04:51:14;97235.69;;;2.97
72054;BMP280;59918;51.280;7.950;2023-04-15T04:53:39;97232.63;;;3.01
72054;BMP280;59918;51.280;7.950;2023-04-15T04:56:05;97237.41;;;3.04
72054;BMP280;59918;51.280;7.950;2023-04-15T04:58:30;97239.59;;;3.07
72054;BMP280;59918;51.280;7.950;2023-04-15T05:00:55;97244.94;;;3.12
72054;BMP280;59918;51.280;7.950;2023-04-15T05:03:20;97244.44;;;3.17
72054;BMP280;59918;51.280;7.950;2023-04-15T05:05:45;97247.44;;;3.20
72054;BMP280;59918;51.280;7.950;2023-04-15T05:08:10;97251.38;;;3.23
72054;BMP280;59918;51.280;7.950;2023-04-15T05:10:36;97251.03;;;3.26
72054;BMP280;59918;51.280;7.950;2023-04-15T05:13:01;97255.75;;;3.28
72054;BMP280;59918;51.280;7.950;2023-04-15T05:15:26;97264.63;;;3.32
72054;BMP280;59918;51.280;7.950;2023-04-15T05:17:51;97262.53;;;3.36
72054;BMP280;59918;51.280;7.950;2023-04-15T05:20:16;97266.31;;;3.40
72054;BMP280;59918;51.280;7.950;2023-04-15T05:22:41;97276.41;;;3.48
72054;BMP280;59918;51.280;7.950;2023-04-15T05:25:07;97280.19;;;3.52
72054;BMP280;59918;51.280;7.950;2023-04-15T05:27:32;97270.91;;;3.59
72054;BMP280;59918;51.280;7.950;2023-04-15T05:29:57;97276.09;;;3.65
72054;BMP280;59918;51.280;7.950;2023-04-15T05:32:22;97272.84;;;3.71
72054;BMP280;59918;51.280;7.950;2023-04-15T05:34:47;97271.19;;;3.78
72054;BMP280;59918;51.280;7.950;2023-04-15T05:37:12;97270.69;;;3.82
72054;BMP280;59918;51.280;7.950;2023-04-15T05:39:37;97267.59;;;3.87
72054;BMP280;59918;51.280;7.950;2023-04-15T05:42:03;97279.16;;;3.89
72054;BMP280;59918;51.280;7.950;2023-04-15T05:44:28;97276.47;;;3.91
72054;BMP280;59918;51.280;7.950;2023-04-15T05:46:53;97278.06;;;3.92
72054;BMP280;59918;51.280;7.950;2023-04-15T05:49:18;97286.63;;;3.91
72054;BMP280;59918;51.280;7.950;2023-04-15T05:51:43;97288.03;;;3.93
72054;BMP280;59918;51.280;7.950;2023-04-15T05:54:08;97288.94;;;4.00
72054;BMP280;59918;51.280;7.950;2023-04-15T05:56:33;97288.06;;;4.07
72054;BMP280;59918;51.280;7.950;2023-04-15T05:58:59;97290.69;;;4.14
72054;BMP280;59918;51.280;7.950;2023-04-15T06:01:24;97294.91;;;4.21
72054;BMP280;59918;51.280;7.950;2023-04-15T06:03:49;97303.56;;;4.27
72054;BMP280;59918;51.280;7.950;2023-04-15T06:06:14;97303.66;;;4.33
72054;BMP280;59918;51.280;7.950;2023-04-15T06:08:39;97300.03;;;4.42
72054;BMP280;59918;51.280;7.950;2023-04-15T06:11:05;97309.63;;;4.54
72054;BMP280;59918;51.280;7.950;2023-04-15T06:13:30;97312.31;;;4.67
72054;BMP280;59918;51.280;7.950;2023-04-15T06:15:55;97319.72;;;4.83
72054;BMP280;59918;51.280;7.950;2023-04-15T06:18:20;97319.50;;;4.99
72054;BMP280;59918;51.280;7.950;2023-04-15T06:20:45;97313.81;;;5.17
72054;BMP280;59918;51.280;7.950;2023-04-15T06:23:10;97312.97;;;5.31
72054;BMP280;59918;51.280;7.950;2023-04-15T06:25:35;97311.34;;;5.44
72054;BMP280;59918;51.280;7.950;2023-04-15T06:28:01;97317.69;;;5.55
72054;BMP280;59918;51.280;7.950;2023-04-15T06:30:26;97324.81;;;5.66
72054;BMP280;59918;51.280;7.950;2023-04-15T06:32:54;97328.09;;;5.74
72054;BMP280;59918;51.280;7.950;2023-04-15T06:35:19;97328.56;;;5.84
72054;BMP280;59918;51.280;7.950;2023-04-15T06:37:44;97328.03;;;5.95
72054;BMP280;59918;51.280;7.950;2023-04-15T06:40:09;97326.53;;;6.07
72054;BMP280;59918;51.280;7.950;2023-04-15T06:42:34;97326.81;;;6.18
72054;BMP280;59918;51.280;7.950;2023-04-15T06:45:00;97329.22;;;6.26
72054;BMP280;59918;51.280;7.950;2023-04-15T06:47:25;97329.06;;;6.34
72054;BMP280;59918;51.280;7.950;2023-04-15T06:49:50;97326.34;;;6.42
72054;BMP280;59918;51.280;7.950;2023-04-15T06:52:15;97323.63;;;6.50
72054;BMP280;59918;51.280;7.950;2023-04-15T06:54:41;97320.75;;;6.59
72054;BMP280;59918;51.280;7.950;2023-04-15T06:57:06;97320.00;;;6.71
72054;BMP280;59918;51.280;7.950;2023-04-15T06:59:31;97323.56;;;6.83
72054;BMP280;59918;51.280;7.950;2023-04-15T07:01:56;97318.50;;;6.96
72054;BMP280;59918;51.280;7.950;2023-04-15T07:04:21;97328.78;;;7.09
72054;BMP280;59918;51.280;7.950;2023-04-15T07:06:46;97329.03;;;7.27
72054;BMP280;59918;51.280;7.950;2023-04-15T07:09:11;97322.75;;;7.48
72054;BMP280;59918;51.280;7.950;2023-04-15T07:11:37;97332.41;;;7.72
72054;BMP280;59918;51.280;7.950;2023-04-15T07:14:02;97329.84;;;7.98
72054;BMP280;59918;51.280;7.950;2023-04-15T07:16:27;97328.03;;;8.24
72054;BMP280;59918;51.280;7.950;2023-04-15T07:18:53;97330.75;;;8.48
72054;BMP280;59918;51.280;7.950;2023-04-15T07:21:18;97329.88;;;8.73
72054;BMP280;59918;51.280;7.950;2023-04-15T07:23:43;97331.53;;;8.98
72054;BMP280;59918;51.280;7.950;2023-04-15T07:26:08;97326.69;;;9.21
72054;BMP280;59918;51.280;7.950;2023-04-15T07:28:33;97318.06;;;9.40
72054;BMP280;59918;51.280;7.950;2023-04-15T07:30:59;97319.59;;;9.53
72054;BMP280;59918;51.280;7.950;2023-04-15T07:33:24;97318.31;;;9.62
72054;BMP280;59918;51.280;7.950;2023-04-15T07:35:49;97316.13;;;9.66
72054;BMP280;59918;51.280;7.950;2023-04-15T07:38:14;97325.38;;;9.67
72054;BMP280;59918;51.280;7.950;2023-04-15T07:40:39;97329.72;;;9.66
72054;BMP280;59918;51.280;7.950;2023-04-15T07:43:05;97323.25;;;9.64
72054;BMP280;59918;51.280;7.950;2023-04-15T07:45:30;97327.44;;;9.58
72054;BMP280;59918;51.280;7.950;2023-04-15T07:47:55;97326.06;;;9.56
72054;BMP280;59918;51.280;7.950;2023-04-15T07:50:21;97332.63;;;9.52
72054;BMP280;59918;51.280;7.950;2023-04-15T07:52:46;97328.13;;;9.47
72054;BMP280;59918;51.280;7.950;2023-04-15T07:55:12;97333.44;;;9.46
72054;BMP280;59918;51.280;7.950;2023-04-15T07:57:37;97336.97;;;9.51
72054;BMP280;59918;51.280;7.950;2023-04-15T08:00:03;97334.16;;;9.59
72054;BMP280;59918;51.280;7.950;2023-04-15T08:02:28;97332.88;;;9.68
72054;BMP280;59918;51.280;7.950;2023-04-15T08:04:53;97334.16;;;9.83
72054;BMP280;59918;51.280;7.950;2023-04-15T08:07:19;97335.44;;;9.99
72054;BMP280;59918;51.280;7.950;2023-04-15T08:09:44;97328.53;;;10.17
72054;BMP280;59918;51.280;7.950;2023-04-15T08:12:09;97327.50;;;10.24
72054;BMP280;59918;51.280;7.950;2023-04-15T08:14:34;97330.44;;;10.46
72054;BMP280;59918;51.280;7.950;2023-04-15T08:16:59;97334.94;;;10.68
72054;BMP280;59918;51.280;7.950;2023-04-15T08:19:24;97326.34;;;10.74
72054;BMP280;59918;51.280;7.950;2023-04-15T08:21:50;97323.78;;;10.74
72054;BMP280;59918;51.280;7.950;2023-04-15T08:24:15;97321.88;;;10.69
72054;BMP280;59918;51.280;7.950;2023-04-15T08:26:40;97318.78;;;10.79
72054;BMP280;59918;51.280;7.950;2023-04-15T08:29:05;97336.84;;;10.90
72054;BMP280;59918;51.280;7.950;2023-04-15T08:31:30;97339.19;;;10.92
72054;BMP280;59918;51.280;7.950;2023-04-15T08:33:56;97326.81;;;11.00
72054;BMP280;59918;51.280;7.950;2023-04-15T08:36:21;97322.81;;;11.04
72054;BMP280;59918;51.280;7.950;2023-04-15T08:38:46;97326.66;;;11.13
72054;BMP280;59918;51.280;7.950;2023-04-15T08:41:17;97332.94;;;11.17
72054;BMP280;59918;51.280;7.950;2023-04-15T08:43:56;97333.09;;;11.33
72054;BMP280;59918;51.280;7.950;2023-04-15T08:46:21;97331.31;;;11.51
72054;BMP280;59918;51.280;7.950;2023-04-15T08:48:47;97325.59;;;11.61
72054;BMP280;59918;51.280;7.950;2023-04-15T08:51:12;97332.91;;;11.75
72054;BMP280;59918;51.280;7.950;2023-04-15T08:53:37;97333.38;;;11.83
72054;BMP280;59918;51.280;7.950;2023-04-15T08:56:03;97340.41;;;11.76
72054;BMP280;59918;51.280;7.950;2023-04-15T08:58:29;97336.78;;;11.55
72054;BMP280;59918;51.280;7.950;2023-04-15T09:00:55;97334.75;;;11.27
72054;BMP280;59918;51.280;7.950;2023-04-15T09:03:20;97343.88;;;11.12
72054;BMP280;59918;51.280;7.950;2023-04-15T09:05:46;97343.06;;;11.00
72054;BMP280;59918;51.280;7.950;2023-04-15T09:08:11;97348.63;;;10.97
72054;BMP280;59918;51.280;7.950;2023-04-15T09:10:36;97347.47;;;10.93
72054;BMP280;59918;51.280;7.950;2023-04-15T09:13:01;97351.06;;;10.93
72054;BMP280;59918;51.280;7.950;2023-04-15T09:15:27;97356.22;;;10.93
72054;BMP280;59918;51.280;7.950;2023-04-15T09:17:52;97363.84;;;10.99
72054;BMP280;59918;51.280;7.950;2023-04-15T09:20:19;97363.84;;;10.99
72054;BMP280;59918;51.280;7.950;2023-04-15T09:22:45;97363.94;;;10.93
72054;BMP280;59918;51.280;7.950;2023-04-15T09:25:32;97368.06;;;10.93
72054;BMP280;59918;51.280;7.950;2023-04-15T09:27:57;97371.97;;;10.96
72054;BMP280;59918;51.280;7.950;2023-04-15T09:30:22;97365.63;;;10.98
72054;BMP280;59918;51.280;7.950;2023-04-15T09:32:48;97361.69;;;10.96
72054;BMP280;59918;51.280;7.950;2023-04-15T09:35:14;97377.00;;;10.91
72054;BMP280;59918;51.280;7.950;2023-04-15T09:37:39;97378.22;;;10.89
72054;BMP280;59918;51.280;7.950;2023-04-15T09:40:04;97381.22;;;10.86
72054;BMP280;59918;51.280;7.950;2023-04-15T09:42:29;97377.88;;;10.85
72054;BMP280;59918;51.280;7.950;2023-04-15T09:44:54;97383.56;;;10.87
72054;BMP280;59918;51.280;7.950;2023-04-15T09:47:29;97391.38;;;10.81
72054;BMP280;59918;51.280;7.950;2023-04-15T09:49:55;97387.28;;;10.73
72054;BMP280;59918;51.280;7.950;2023-04-15T09:52:20;97385.00;;;10.65
72054;BMP280;59918;51.280;7.950;2023-04-15T09:54:46;97393.22;;;10.56
72054;BMP280;59918;51.280;7.950;2023-04-15T09:57:11;97402.72;;;10.56
72054;BMP280;59918;51.280;7.950;2023-04-15T09:59:36;97393.13;;;10.62
72054;BMP280;59918;51.280;7.950;2023-04-15T10:02:02;97390.47;;;10.69
72054;BMP280;59918;51.280;7.950;2023-04-15T10:04:28;97394.44;;;10.71
72054;BMP280;59918;51.280;7.950;2023-04-15T10:06:54;97394.47;;;10.65
72054;BMP280;59918;51.280;7.950;2023-04-15T10:09:20;97392.44;;;10.56
72054;BMP280;59918;51.280;7.950;2023-04-15T10:11:47;97399.97;;;10.51
72054;BMP280;59918;51.280;7.950;2023-04-15T10:14:13;97397.84;;;10.48
72054;BMP280;59918;51.280;7.950;2023-04-15T10:16:39;97401.03;;;10.43
72054;BMP280;59918;51.280;7.950;2023-04-15T10:19:05;97408.59;;;10.38
72054;BMP280;59918;51.280;7.950;2023-04-15T10:21:30;97406.72;;;10.27
72054;BMP280;59918;51.280;7.950;2023-04-15T10:23:56;97411.13;;;10.20
72054;BMP280;59918;51.280;7.950;2023-04-15T10:26:22;97411.34;;;10.19
72054;BMP280;59918;51.280;7.950;2023-04-15T10:28:48;97414.34;;;10.16
72054;BMP280;59918;51.280;7.950;2023-04-15T10:31:13;97415.53;;;10.14
72054;BMP280;59918;51.280;7.950;2023-04-15T10:33:39;97422.88;;;10.10
72054;BMP280;59918;51.280;7.950;2023-04-15T10:36:04;97416.56;;;10.06
72054;BMP280;59918;51.280;7.950;2023-04-15T10:41:11;97426.25;;;10.11
72054;BMP280;59918;51.280;7.950;2023-04-15T10:43:36;97430.94;;;10.14
72054;BMP280;59918;51.280;7.950;2023-04-15T10:46:03;97431.38;;;10.11
72054;BMP280;59918;51.280;7.950;2023-04-15T10:48:28;97423.50;;;10.06
72054;BMP280;59918;51.280;7.950;2023-04-15T10:50:55;97436.19;;;10.01
72054;BMP280;59918;51.280;7.950;2023-04-15T10:53:26;97431.25;;;9.99
72054;BMP280;59918;51.280;7.950;2023-04-15T10:55:52;97438.31;;;10.04
72054;BMP280;59918;51.280;7.950;2023-04-15T10:58:17;97431.97;;;10.06
72054;BMP280;59918;51.280;7.950;2023-04-15T11:00:44;97438.91;;;10.06
72054;BMP280;59918;51.280;7.950;2023-04-15T11:03:13;97437.28;;;10.11
72054;BMP280;59918;51.280;7.950;2023-04-15T11:08:10;97446.78;;;10.11
72054;BMP280;59918;51.280;7.950;2023-04-15T11:13:01;97450.19;;;10.05
72054;BMP280;59918;51.280;7.950;2023-04-15T11:15:31;97460.13;;;9.95
72054;BMP280;59918;51.280;7.950;2023-04-15T11:17:57;97461.34;;;9.86
72054;BMP280;59918;51.280;7.950;2023-04-15T11:20:22;97463.16;;;9.79
72054;BMP280;59918;51.280;7.950;2023-04-15T11:22:48;97473.44;;;9.79
72054;BMP280;59918;51.280;7.950;2023-04-15T11:25:23;97462.94;;;9.81
72054;BMP280;59918;51.280;7.950;2023-04-15T11:27:49;97465.13;;;9.83
72054;BMP280;59918;51.280;7.950;2023-04-15T11:30:17;97466.66;;;9.84
72054;BMP280;59918;51.280;7.950;2023-04-15T11:32:42;97467.84;;;9.88
72054;BMP280;59918;51.280;7.950;2023-04-15T11:35:07;97483.03;;;9.90
72054;BMP280;59918;51.280;7.950;2023-04-15T11:37:32;97477.75;;;9.91
72054;BMP280;59918;51.280;7.950;2023-04-15T11:39:58;97480.09;;;9.93
72054;BMP280;59918;51.280;7.950;2023-04-15T11:42:23;97487.41;;;9.89
72054;BMP280;59918;51.280;7.950;2023-04-15T11:44:48;97491.75;;;9.89
72054;BMP280;59918;51.280;7.950;2023-04-15T11:47:23;97495.50;;;9.86
72054;BMP280;59918;51.280;7.950;2023-04-15T11:49:48;97491.97;;;9.87
72054;BMP280;59918;51.280;7.950;2023-04-15T11:52:13;97493.34;;;9.83
72054;BMP280;59918;51.280;7.950;2023-04-15T11:54:38;97492.34;;;9.84
72054;BMP280;59918;51.280;7.950;2023-04-15T11:57:03;97503.44;;;9.85
72054;BMP280;59918;51.280;7.950;2023-04-15T11:59:40;97495.31;;;9.88
72054;BMP280;59918;51.280;7.950;2023-04-15T12:02:11;97500.06;;;9.91
72054;BMP280;59918;51.280;7.950;2023-04-15T12:04:36;97506.78;;;9.92
72054;BMP280;59918;51.280;7.950;2023-04-15T12:07:03;97508.94;;;9.95
72054;BMP280;59918;51.280;7.950;2023-04-15T12:09:28;97511.28;;;9.96
72054;BMP280;59918;51.280;7.950;2023-04-15T12:11:56;97519.63;;;9.92
72054;BMP280;59918;51.280;7.950;2023-04-15T12:14:25;97519.63;;;9.92
72054;BMP280;59918;51.280;7.950;2023-04-15T12:16:51;97523.53;;;9.94
72054;BMP280;59918;51.280;7.950;2023-04-15T12:19:18;97519.38;;;10.00
72054;BMP280;59918;51.280;7.950;2023-04-15T12:21:46;97526.25;;;10.06
72054;BMP280;59918;51.280;7.950;2023-04-15T12:24:12;97526.25;;;10.06
72054;BMP280;59918;51.280;7.950;2023-04-15T12:26:42;97533.38;;;10.04
72054;BMP280;59918;51.280;7.950;2023-04-15T12:29:07;97533.81;;;10.01
72054;BMP280;59918;51.280;7.950;2023-04-15T12:31:35;97530.81;;;10.04
72054;BMP280;59918;51.280;7.950;2023-04-15T12:34:01;97544.03;;;10.07
72054;BMP280;59918;51.280;7.950;2023-04-15T12:36:29;97542.81;;;10.16
72054;BMP280;59918;51.280;7.950;2023-04-15T12:38:54;97547.31;;;10.20
72054;BMP280;59918;51.280;7.950;2023-04-15T12:41:19;97550.66;;;10.21
72054;BMP280;59918;51.280;7.950;2023-04-15T12:43:45;97551.88;;;10.19
72054;BMP280;59918;51.280;7.950;2023-04-15T12:46:10;97565.94;;;10.16
72054;BMP280;59918;51.280;7.950;2023-04-15T12:48:35;97555.44;;;10.18
72054;BMP280;59918;51.280;7.950;2023-04-15T12:51:00;97564.28;;;10.21
72054;BMP280;59918;51.280;7.950;2023-04-15T12:53:26;97576.75;;;10.24
72054;BMP280;59918;51.280;7.950;2023-04-15T12:55:51;97572.97;;;10.27
72054;BMP280;59918;51.280;7.950;2023-04-15T12:58:16;97575.72;;;10.25
72054;BMP280;59918;51.280;7.950;2023-04-15T13:00:41;97581.50;;;10.21
72054;BMP280;59918;51.280;7.950;2023-04-15T13:03:06;97578.72;;;10.22
72054;BMP280;59918;51.280;7.950;2023-04-15T13:05:32;97579.91;;;10.26
72054;BMP280;59918;51.280;7.950;2023-04-15T13:07:57;97575.97;;;10.24
72054;BMP280;59918;51.280;7.950;2023-04-15T13:10:22;97583.50;;;10.19
72054;BMP280;59918;51.280;7.950;2023-04-15T13:12:50;97579.38;;;10.12
72054;BMP280;59918;51.280;7.950;2023-04-15T13:15:16;97583.16;;;10.09
72054;BMP280;59918;51.280;7.950;2023-04-15T13:17:41;97583.16;;;10.09
72054;BMP280;59918;51.280;7.950;2023-04-15T13:20:06;97582.75;;;10.06
72054;BMP280;59918;51.280;7.950;2023-04-15T13:22:31;97585.53;;;10.04
72054;BMP280;59918;51.280;7.950;2023-04-15T13:24:56;97594.06;;;10.05
72054;BMP280;59918;51.280;7.950;2023-04-15T13:27:21;97592.66;;;10.09
72054;BMP280;59918;51.280;7.950;2023-04-15T13:29:46;97588.88;;;10.11
72054;BMP280;59918;51.280;7.950;2023-04-15T13:32:12;97600.94;;;10.11
72054;BMP280;59918;51.280;7.950;2023-04-15T13:34:37;97593.63;;;10.08
72054;BMP280;59918;51.280;7.950;2023-04-15T13:37:06;97591.84;;;10.08
72054;BMP280;59918;51.280;7.950;2023-04-15T13:39:31;97599.72;;;10.13
72054;BMP280;59918;51.280;7.950;2023-04-15T13:41:56;97596.34;;;10.19
72054;BMP280;59918;51.280;7.950;2023-04-15T13:44:21;97608.75;;;10.28
72054;BMP280;59918;51.280;7.950;2023-04-15T13:46:46;97603.59;;;10.28
72054;BMP280;59918;51.280;7.950;2023-04-15T13:49:11;97605.41;;;10.28
72054;BMP280;59918;51.280;7.950;2023-04-15T13:51:37;97605.59;;;10.26
72054;BMP280;59918;51.280;7.950;2023-04-15T13:54:02;97621.06;;;10.20
72054;BMP280;59918;51.280;7.950;2023-04-15T13:56:27;97608.06;;;10.09
72054;BMP280;59918;51.280;7.950;2023-04-15T13:58:53;97617.94;;;10.05
72054;BMP280;59918;51.280;7.950;2023-04-15T14:01:18;97625.47;;;10.00
72054;BMP280;59918;51.280;7.950;2023-04-15T14:03:43;97619.34;;;10.01
72054;BMP280;59918;51.280;7.950;2023-04-15T14:06:08;97629.00;;;10.06
72054;BMP280;59918;51.280;7.950;2023-04-15T14:08:33;97632.97;;;10.02
72054;BMP280;59918;51.280;7.950;2023-04-15T14:10:58;97631.03;;;9.97
72054;BMP280;59918;51.280;7.950;2023-04-15T14:13:24;97651.00;;;9.89